Time;durP1;ratioP1;P1;durP2;ratioP2;P2;SDS_P1;SDS_P2;PMS_P1;PMS_P2;Temp;Humidity;BMP_temperature;BMP_pressure;BME280_temperature;BME280_humidity;BME280_pressure;Samples;Min_cycle;Max_cycle;Signal;HPM_P1;HPM_P2
2023/02/22 00:00:18;;;;;;;;;;;;;;;20.20;54.05;101234.19;5079541;28;1719;-62
2023/02/22 00:02:45;;;;;;;;;;;;;;;20.20;53.97;101237.06;5079293;28;1858;-62
2023/02/22 00:05:15;;;;;;;;;;;;;;;20.18;53.99;101232.00;5080437;28;1967;-62
2023/02/22 00:07:43;;;;;;;;;;;;;;;20.18;54.01;101232.00;5080489;28;1802;-62
2023/02/22 00:10:12;;;;;;;;;;;;;;;20.18;54.08;101228.34;5080007;28;1841;-62
2023/02/22 00:12:41;;;;;;;;;;;;;;;20.18;54.25;101231.22;5079867;28;1622;-62
2023/02/22 00:15:08;;;;;;;;;;;;;;;20.17;54.11;101224.00;5077234;28;1524;-62
2023/02/22 00:17:34;;;;;;;;;;;;;;;20.17;54.05;101224.00;5079221;28;1723;-62
2023/02/22 00:20:04;;;;;;;;;;;;;;;20.16;54.16;101225.34;5080810;28;1542;-62
2023/02/22 00:22:30;;;;;;;;;;;;;;;20.16;53.95;101225.34;5077427;28;1719;-62
2023/02/22 00:24:57;;;;;;;;;;;;;;;20.15;54.12;101227.50;5079377;28;2003;-62
2023/02/22 00:27:23;;;;;;;;;;;;;;;20.15;54.01;101226.75;5078369;28;1804;-62
2023/02/22 00:29:49;;;;;;;;;;;;;;;20.14;54.10;101231.75;5079975;28;1595;-62
2023/02/22 00:32:16;;;;;;;;;;;;;;;20.14;54.09;101226.00;5078611;28;2687;-61
2023/02/22 00:34:42;;;;;;;;;;;;;;;20.13;53.91;101227.38;5078481;28;1779;-62
2023/02/22 00:37:09;;;;;;;;;;;;;;;20.13;53.94;101210.13;5079218;28;1822;-62
2023/02/22 00:39:35;;;;;;;;;;;;;;;20.12;53.84;101222.28;5081233;28;1821;-61
2023/02/22 00:42:02;;;;;;;;;;;;;;;20.12;54.04;101222.28;5080733;28;1774;-61
2023/02/22 00:44:29;;;;;;;;;;;;;;;20.11;53.95;101218.66;5077834;28;1829;-61
2023/02/22 00:46:55;;;;;;;;;;;;;;;20.09;53.98;101216.44;5075703;28;1902;-62
2023/02/22 00:49:21;;;;;;;;;;;;;;;20.09;53.76;101222.19;5079853;28;2110;-62
2023/02/22 00:51:48;;;;;;;;;;;;;;;20.10;53.77;101217.16;5072790;28;1660;-62
2023/02/22 00:54:17;;;;;;;;;;;;;;;20.09;53.83;101221.44;5058322;28;1850;-62
2023/02/22 00:56:43;;;;;;;;;;;;;;;20.09;53.65;101215.69;5080185;28;1615;-62
2023/02/22 00:59:10;;;;;;;;;;;;;;;20.07;53.71;101222.06;5081777;28;1809;-62
2023/02/22 01:01:36;;;;;;;;;;;;;;;20.06;53.92;101217.69;5107741;27;1544;-62
2023/02/22 01:04:02;;;;;;;;;;;;;;;20.07;53.72;101222.06;5081624;28;1844;-62
2023/02/22 01:06:30;;;;;;;;;;;;;;;20.07;53.68;101224.94;5081018;28;1961;-61
2023/02/22 01:08:56;;;;;;;;;;;;;;;20.06;53.84;101217.69;5081972;28;1833;-62
2023/02/22 01:11:23;;;;;;;;;;;;;;;20.06;53.67;101220.56;5079244;28;1599;-62
2023/02/22 01:13:52;;;;;;;;;;;;;;;20.05;53.61;101218.34;5082386;28;1700;-62
2023/02/22 01:16:19;;;;;;;;;;;;;;;20.04;53.62;101208.97;5113331;27;1722;-62
2023/02/22 01:18:46;;;;;;;;;;;;;;;20.03;53.62;101213.22;5080865;28;1575;-62
2023/02/22 01:21:12;;;;;;;;;;;;;;;20.02;53.55;101211.75;5078536;28;1692;-62
2023/02/22 01:23:40;;;;;;;;;;;;;;;20.02;53.67;101217.50;5055565;28;1735;-62
2023/02/22 01:26:06;;;;;;;;;;;;;;;20.02;53.74;101214.63;5095516;28;1922;-62
2023/02/22 01:28:32;;;;;;;;;;;;;;;20.00;53.67;101200.13;5081413;28;1676;-62
2023/02/22 01:31:01;;;;;;;;;;;;;;;20.00;53.60;101208.75;5081194;28;1664;-61
2023/02/22 01:33:28;;;;;;;;;;;;;;;20.00;53.64;101203.00;5078455;28;2118;-62
2023/02/22 01:35:54;;;;;;;;;;;;;;;19.99;53.57;101207.25;5082499;28;1655;-62
2023/02/22 01:38:20;;;;;;;;;;;;;;;20.00;53.43;101208.00;5084796;28;1782;-62
2023/02/22 01:40:47;;;;;;;;;;;;;;;19.99;53.58;101212.25;5084507;28;1576;-61
2023/02/22 01:43:15;;;;;;;;;;;;;;;20.00;53.40;101210.88;5065779;28;1625;-62
2023/02/22 01:45:46;;;;;;;;;;;;;;;19.99;53.45;101212.25;5094212;27;1975;-62
2023/02/22 01:48:15;;;;;;;;;;;;;;;19.97;53.53;101212.88;5067461;28;1810;-62
2023/02/22 01:50:43;;;;;;;;;;;;;;;19.97;53.33;101209.28;5101684;27;1702;-62
2023/02/22 01:53:12;;;;;;;;;;;;;;;19.97;53.36;101200.66;5072267;28;1641;-62
2023/02/22 01:55:38;;;;;;;;;;;;;;;19.95;53.42;101207.06;5067918;28;1571;-62
2023/02/22 01:58:04;;;;;;;;;;;;;;;19.96;53.46;101202.78;5080702;28;1598;-62
2023/02/22 02:00:31;;;;;;;;;;;;;;;19.96;53.28;101194.16;5103291;27;1716;-62
2023/02/22 02:02:58;;;;;;;;;;;;;;;19.94;53.31;101187.56;5068606;28;1862;-62
2023/02/22 02:05:25;;;;;;;;;;;;;;;19.95;53.16;101189.03;5075368;28;1967;-62
2023/02/22 02:07:52;;;;;;;;;;;;;;;19.95;53.32;101186.16;5067895;28;1717;-62
2023/02/22 02:10:20;;;;;;;;;;;;;;;19.94;53.10;101182.56;5103879;27;1790;-62
2023/02/22 02:12:47;;;;;;;;;;;;;;;19.94;53.33;101185.44;5071747;28;1809;-62
2023/02/22 02:15:24;;;;;;;;;;;;;;;19.95;53.34;101194.78;5071220;28;1587;-62
2023/02/22 02:17:51;;;;;;;;;;;;;;;19.95;53.21;101195.56;5054562;28;2199;-62
2023/02/22 02:20:29;;;;;;;;;;;;;;;19.97;53.28;101195.63;5078536;28;1731;-62
2023/02/22 02:23:14;;;;;;;;;;;;;;;19.98;53.45;101188.53;5082912;28;1600;-62
2023/02/22 02:26:02;;;;;;;;;;;;;;;20.00;53.48;101190.78;5081422;28;1979;-62
2023/02/22 02:28:47;;;;;;;;;;;;;;;20.00;53.40;101185.75;5053228;28;1663;-62
2023/02/22 02:31:24;;;;;;;;;;;;;;;20.02;53.60;101188.75;5065471;28;1625;-62
2023/02/22 02:34:01;;;;;;;;;;;;;;;20.01;53.40;101193.00;5067064;28;2184;-61
2023/02/22 02:36:48;;;;;;;;;;;;;;;20.02;53.46;101183.00;5082380;28;1513;-62
2023/02/22 02:39:19;;;;;;;;;;;;;;;20.02;53.45;101188.75;5049299;28;1601;-62
2023/02/22 02:41:46;;;;;;;;;;;;;;;20.02;53.48;101185.88;5095856;28;1848;-62
2023/02/22 02:44:27;;;;;;;;;;;;;;;20.02;53.42;101183.00;5095620;28;1590;-62
2023/02/22 02:47:06;;;;;;;;;;;;;;;20.02;53.51;101180.13;5092828;28;1977;-62
2023/02/22 02:49:34;;;;;;;;;;;;;;;20.01;53.55;101183.63;5072915;28;1715;-62
2023/02/22 02:52:01;;;;;;;;;;;;;;;20.01;53.46;101181.50;5110060;28;2184;-62
2023/02/22 02:54:27;;;;;;;;;;;;;;;20.00;53.40;101179.28;5096705;28;1724;-62
2023/02/22 02:56:54;;;;;;;;;;;;;;;19.99;53.44;101178.50;5075914;28;1828;-62
2023/02/22 02:59:25;;;;;;;;;;;;;;;19.99;53.52;101190.00;5076846;28;1797;-62
2023/02/22 03:01:56;;;;;;;;;;;;;;;19.98;53.43;101188.53;5070692;28;1642;-61
2023/02/22 03:04:22;;;;;;;;;;;;;;;19.97;53.41;101181.25;5103142;27;1781;-62
2023/02/22 03:06:51;;;;;;;;;;;;;;;19.97;53.37;101175.53;5058799;28;1910;-62
2023/02/22 03:09:34;;;;;;;;;;;;;;;19.98;53.34;101184.91;5105998;27;1598;-62
2023/02/22 03:12:10;;;;;;;;;;;;;;;19.97;53.50;101186.28;5070312;28;1659;-62
2023/02/22 03:14:37;;;;;;;;;;;;;;;19.96;53.34;101179.06;5079739;28;1672;-62
2023/02/22 03:17:04;;;;;;;;;;;;;;;19.95;53.39;101178.31;5083392;28;1826;-62
2023/02/22 03:19:34;;;;;;;;;;;;;;;19.94;53.39;101179.69;5085930;28;1693;-62
2023/02/22 03:22:01;;;;;;;;;;;;;;;19.94;53.27;101176.81;5072574;28;1670;-62
2023/02/22 03:24:51;;;;;;;;;;;;;;;19.95;53.19;101166.81;5087870;28;1626;-62
2023/02/22 03:27:26;;;;;;;;;;;;;;;19.93;53.04;101168.81;5101750;27;1910;-62
2023/02/22 03:29:59;;;;;;;;;;;;;;;19.92;53.24;101168.06;5086958;28;1917;-62
2023/02/22 03:32:30;;;;;;;;;;;;;;;19.93;53.26;101163.81;5073266;28;2114;-62
2023/02/22 03:34:58;;;;;;;;;;;;;;;19.92;53.23;101168.06;5103733;27;1726;-62
2023/02/22 03:37:28;;;;;;;;;;;;;;;19.92;53.15;101168.06;5067514;28;1800;-62
2023/02/22 03:39:54;;;;;;;;;;;;;;;19.93;53.22;101169.56;5099845;27;1675;-62
2023/02/22 03:42:22;;;;;;;;;;;;;;;19.95;53.34;101166.81;5069464;28;1633;-62
2023/02/22 03:44:48;;;;;;;;;;;;;;;19.96;53.18;101161.81;5056542;28;1725;-62
2023/02/22 03:47:16;;;;;;;;;;;;;;;19.98;53.28;101176.28;5099715;27;2046;-62
2023/02/22 03:49:48;;;;;;;;;;;;;;;19.99;53.14;101167.00;5053633;28;1816;-62
2023/02/22 03:52:16;;;;;;;;;;;;;;;20.00;53.35;101162.03;5082818;28;1801;-62
2023/02/22 03:54:42;;;;;;;;;;;;;;;20.01;53.30;101166.38;5067411;28;1769;-62
2023/02/22 03:57:16;;;;;;;;;;;;;;;20.01;53.39;101170.00;5099791;28;1674;-62
2023/02/22 03:59:43;;;;;;;;;;;;;;;20.02;53.32;101165.75;5073301;28;1679;-62
2023/02/22 04:02:10;;;;;;;;;;;;;;;20.02;53.40;101165.75;5093499;28;1616;-62
2023/02/22 04:04:37;;;;;;;;;;;;;;;20.03;53.36;101164.34;5077343;28;1840;-62
2023/02/22 04:07:04;;;;;;;;;;;;;;;20.02;53.45;101171.50;5111445;27;1910;-62
2023/02/22 04:09:31;;;;;;;;;;;;;;;20.04;53.36;101173.72;5080358;28;1820;-62
2023/02/22 04:11:58;;;;;;;;;;;;;;;20.02;53.35;101168.63;5081548;28;1778;-62
2023/02/22 04:14:25;;;;;;;;;;;;;;;20.05;53.18;101169.47;5078556;28;1801;-62
2023/02/22 04:16:55;;;;;;;;;;;;;;;20.05;53.18;101173.09;5059753;28;1624;-62
2023/02/22 04:19:21;;;;;;;;;;;;;;;20.06;53.27;101170.94;5081468;28;1809;-62
2023/02/22 04:21:49;;;;;;;;;;;;;;;20.07;53.13;101161.69;5080270;28;1820;-62
2023/02/22 04:24:20;;;;;;;;;;;;;;;20.08;53.16;101160.28;5080084;28;1875;-62
2023/02/22 04:26:47;;;;;;;;;;;;;;;20.09;53.20;101164.69;5080685;28;1963;-62
2023/02/22 04:29:14;;;;;;;;;;;;;;;20.09;53.18;101161.06;5075996;28;1742;-62
2023/02/22 04:31:43;;;;;;;;;;;;;;;20.09;53.22;101170.44;5056067;28;2952;-62
2023/02/22 04:34:10;;;;;;;;;;;;;;;20.08;53.14;101162.44;5076571;28;2705;-62
2023/02/22 04:36:41;;;;;;;;;;;;;;;20.08;53.13;101156.69;5057494;28;2638;-62
2023/02/22 04:39:07;;;;;;;;;;;;;;;20.08;53.30;101156.69;5071864;28;2802;-62
2023/02/22 04:41:34;;;;;;;;;;;;;;;20.11;53.03;101166.91;5066812;28;2698;-63
2023/02/22 04:44:00;;;;;;;;;;;;;;;20.13;53.10;101157.63;5070423;28;1603;-63
2023/02/22 04:46:27;;;;;;;;;;;;;;;20.13;53.24;101158.38;5068482;28;2802;-63
2023/02/22 04:48:54;;;;;;;;;;;;;;;20.13;53.18;101158.38;5055228;28;2831;-60
2023/02/22 04:51:23;;;;;;;;;;;;;;;20.11;53.30;101158.28;5055212;28;1718;-62
2023/02/22 04:53:55;;;;;;;;;;;;;;;20.11;53.13;101154.66;5101525;27;2513;-63
2023/02/22 04:56:22;;;;;;;;;;;;;;;20.16;53.15;101153.47;5053429;28;2950;-63
2023/02/22 04:58:49;;;;;;;;;;;;;;;20.17;53.33;101158.59;5098355;27;3144;-61
2023/02/22 05:01:15;;;;;;;;;;;;;;;20.19;53.32;101160.84;5061919;28;2863;-61
2023/02/22 05:03:44;;;;;;;;;;;;;;;20.19;53.68;101152.22;5074475;28;2855;-62
2023/02/22 05:06:11;;;;;;;;;;;;;;;20.20;53.64;101156.56;5062680;28;2855;-62
2023/02/22 05:08:37;;;;;;;;;;;;;;;20.21;53.88;101149.44;5065921;28;3089;-62
2023/02/22 05:11:04;;;;;;;;;;;;;;;20.22;54.12;101153.78;5066525;28;2805;-61
2023/02/22 05:13:30;;;;;;;;;;;;;;;20.21;54.18;101153.06;5068464;28;1562;-62
2023/02/22 05:15:57;;;;;;;;;;;;;;;20.21;54.49;101147.31;5068546;28;3145;-62
2023/02/22 05:18:23;;;;;;;;;;;;;;;20.22;54.46;101150.91;5094402;27;2821;-62
2023/02/22 05:20:50;;;;;;;;;;;;;;;20.22;54.11;101143.03;5065601;28;2844;-62
2023/02/22 05:23:16;;;;;;;;;;;;;;;20.26;54.14;101154.00;5067707;28;2863;-61
2023/02/22 05:25:43;;;;;;;;;;;;;;;20.26;54.23;101151.13;5063946;28;2760;-61
2023/02/22 05:28:10;;;;;;;;;;;;;;;20.24;54.19;101145.28;5075741;28;2759;-63
2023/02/22 05:30:38;;;;;;;;;;;;;;;20.32;54.33;101151.47;5061418;28;3175;-66
2023/02/22 05:33:08;;;;;;;;;;;;;;;20.33;54.51;101143.56;5070862;28;2977;-69
2023/02/22 05:35:35;;;;;;;;;;;;;;;20.42;54.74;101143.34;5063666;28;3400;-70
2023/02/22 05:38:02;;;;;;;;;;;;;;;20.49;55.83;101142.25;5072594;28;3052;-70
2023/02/22 05:40:28;;;;;;;;;;;;;;;20.54;56.07;101151.81;5060536;28;2799;-69
2023/02/22 05:42:55;;;;;;;;;;;;;;;20.60;55.58;101151.44;5064498;28;2916;-67
2023/02/22 05:45:23;;;;;;;;;;;;;;;20.66;55.97;101149.59;5056646;28;2827;-67
2023/02/22 05:47:50;;;;;;;;;;;;;;;20.65;55.95;101153.13;5056666;28;3032;-68
2023/02/22 05:50:16;;;;;;;;;;;;;;;20.52;55.56;101151.72;5054666;28;4462;-69
2023/02/22 05:52:42;;;;;;;;;;;;;;;20.42;55.76;101154.84;5057782;28;2923;-69
2023/02/22 05:55:09;;;;;;;;;;;;;;;20.45;55.72;101147.06;5056320;28;2869;-62
2023/02/22 05:57:35;;;;;;;;;;;;;;;20.44;55.77;101154.94;5052232;28;3182;-64
2023/02/22 06:00:03;;;;;;;;;;;;;;;20.45;56.05;101150.66;5059518;28;3337;-63
2023/02/22 06:02:38;;;;;;;;;;;;;;;20.45;56.23;101147.78;5065517;28;2759;-64
2023/02/22 06:05:04;;;;;;;;;;;;;;;20.45;55.85;101158.56;5057950;28;2869;-63
2023/02/22 06:07:30;;;;;;;;;;;;;;;20.44;55.71;101157.81;5063532;28;2970;-63
2023/02/22 06:09:57;;;;;;;;;;;;;;;20.44;56.13;101163.56;5066658;28;2885;-64
2023/02/22 06:12:23;;;;;;;;;;;;;;;20.44;55.72;101160.69;5061684;28;2676;-64
2023/02/22 06:14:49;;;;;;;;;;;;;;;20.44;55.92;101162.84;5063700;28;2702;-64
2023/02/22 06:17:16;;;;;;;;;;;;;;;20.44;55.95;101168.59;5059898;28;2794;-64
2023/02/22 06:19:44;;;;;;;;;;;;;;;20.43;55.79;101167.84;5061282;28;2881;-65
2023/02/22 06:22:15;;;;;;;;;;;;;;;20.43;55.75;101167.84;5074791;28;2565;-64
2023/02/22 06:24:41;;;;;;;;;;;;;;;20.43;55.72;101169.97;5058181;28;2538;-65
2023/02/22 06:27:07;;;;;;;;;;;;;;;20.42;55.75;101174.97;5065965;28;2806;-65
2023/02/22 06:29:34;;;;;;;;;;;;;;;20.40;55.61;101177.75;5073321;28;2609;-65
2023/02/22 06:32:00;;;;;;;;;;;;;;;20.40;55.62;101174.88;5074191;28;2829;-65
2023/02/22 06:34:27;;;;;;;;;;;;;;;20.39;55.64;101179.16;5073568;28;2822;-64
2023/02/22 06:36:53;;;;;;;;;;;;;;;20.38;55.71;101176.91;5071530;28;2861;-64
2023/02/22 06:39:19;;;;;;;;;;;;;;;20.38;55.56;101176.91;5075509;28;2596;-64
2023/02/22 06:41:46;;;;;;;;;;;;;;;20.38;55.44;101188.41;5066051;28;2782;-63
2023/02/22 06:44:12;;;;;;;;;;;;;;;20.38;55.42;101183.38;5075774;28;3154;-63
2023/02/22 06:46:39;;;;;;;;;;;;;;;20.36;55.61;101189.03;5072512;28;2817;-64
2023/02/22 06:49:05;;;;;;;;;;;;;;;20.37;55.26;101187.66;5072711;28;2845;-64
2023/02/22 06:51:35;;;;;;;;;;;;;;;20.38;55.51;101194.91;5075681;28;2769;-64
2023/02/22 06:54:01;;;;;;;;;;;;;;;20.38;55.26;101194.16;5075910;28;2732;-64
2023/02/22 06:56:27;;;;;;;;;;;;;;;20.38;55.59;101199.91;5078657;28;2734;-63
2023/02/22 06:58:54;;;;;;;;;;;;;;;20.38;55.32;101200.66;5068605;28;2762;-64
2023/02/22 07:01:20;;;;;;;;;;;;;;;20.38;55.20;101200.66;5078871;28;2829;-64
2023/02/22 07:03:47;;;;;;;;;;;;;;;20.38;55.36;101206.41;5074772;28;2802;-64
2023/02/22 07:06:14;;;;;;;;;;;;;;;20.37;55.29;101210.66;5073396;28;2826;-63
2023/02/22 07:08:40;;;;;;;;;;;;;;;20.37;55.19;101210.66;5077019;28;2810;-63
2023/02/22 07:11:06;;;;;;;;;;;;;;;20.36;55.10;101203.41;5075629;28;2866;-63
2023/02/22 07:13:33;;;;;;;;;;;;;;;20.35;55.02;101196.19;5075629;28;2348;-63
2023/02/22 07:15:59;;;;;;;;;;;;;;;20.35;55.45;101204.81;5076483;28;2703;-63
2023/02/22 07:18:25;;;;;;;;;;;;;;;20.34;55.33;101200.47;5074484;28;2746;-64
2023/02/22 07:20:53;;;;;;;;;;;;;;;20.33;55.20;101201.81;5074559;28;2829;-64
2023/02/22 07:23:19;;;;;;;;;;;;;;;20.34;55.19;101200.47;5078230;28;2815;-64
2023/02/22 07:25:45;;;;;;;;;;;;;;;20.33;54.92;101198.94;5076900;28;2817;-63
2023/02/22 07:28:12;;;;;;;;;;;;;;;20.34;54.98;101202.56;5079868;28;2838;-63
2023/02/22 07:30:38;;;;;;;;;;;;;;;20.35;55.01;101207.69;5077623;28;2703;-63
2023/02/22 07:33:05;;;;;;;;;;;;;;;20.34;55.17;101200.47;5075109;28;2667;-63
2023/02/22 07:35:35;;;;;;;;;;;;;;;20.34;55.20;101200.47;5069570;28;2904;-63
2023/02/22 07:38:02;;;;;;;;;;;;;;;20.35;55.21;101207.69;5068375;28;2782;-63
2023/02/22 07:40:28;;;;;;;;;;;;;;;20.35;54.92;101209.81;5062623;28;2734;-63
2023/02/22 07:42:58;;;;;;;;;;;;;;;20.34;55.07;101205.44;5068052;28;2850;-63
2023/02/22 07:45:28;;;;;;;;;;;;;;;20.35;55.12;101213.44;5073944;28;2873;-63
2023/02/22 07:47:54;;;;;;;;;;;;;;;20.35;55.08;101206.94;5076437;28;2821;-63
2023/02/22 07:50:21;;;;;;;;;;;;;;;20.33;55.02;101203.97;5077165;28;2758;-63
2023/02/22 07:52:47;;;;;;;;;;;;;;;20.33;55.02;101210.47;5078747;28;2443;-63
2023/02/22 07:55:15;;;;;;;;;;;;;;;20.33;54.78;101216.22;5073707;28;2865;-64
2023/02/22 07:57:42;;;;;;;;;;;;;;;20.32;54.94;101211.84;5079145;28;2585;-63
2023/02/22 08:00:09;;;;;;;;;;;;;;;20.33;54.93;101204.72;5075373;28;2819;-64
2023/02/22 08:02:37;;;;;;;;;;;;;;;20.33;55.13;101207.59;5081547;28;2801;-64
2023/02/22 08:05:04;;;;;;;;;;;;;;;20.33;55.08;101216.22;5080516;28;2573;-63
2023/02/22 08:07:31;;;;;;;;;;;;;;;20.35;54.79;101207.69;5070503;28;2841;-64
2023/02/22 08:09:57;;;;;;;;;;;;;;;20.35;54.88;101207.69;5077010;28;2407;-64
2023/02/22 08:12:24;;;;;;;;;;;;;;;20.35;54.78;101201.94;5072276;28;2893;-63
2023/02/22 08:14:50;;;;;;;;;;;;;;;20.36;54.63;101209.16;5073744;28;3004;-64
2023/02/22 08:17:16;;;;;;;;;;;;;;;20.35;54.97;101207.69;5078863;28;3099;-64
2023/02/22 08:19:43;;;;;;;;;;;;;;;20.35;54.87;101207.69;5076320;28;2584;-64
2023/02/22 08:22:09;;;;;;;;;;;;;;;20.35;54.70;101207.69;5075381;28;2636;-64
2023/02/22 08:24:35;;;;;;;;;;;;;;;20.34;54.69;101206.22;5071910;28;2821;-65
2023/02/22 08:27:02;;;;;;;;;;;;;;;20.32;54.80;101208.97;5077313;28;2624;-64
2023/02/22 08:29:32;;;;;;;;;;;;;;;20.26;54.90;101215.16;5071170;28;2779;-64
2023/02/22 08:31:59;;;;;;;;;;;;;;;20.26;54.97;101211.53;5075089;28;2977;-63
2023/02/22 08:34:25;;;;;;;;;;;;;;;20.27;54.91;101218.75;5073510;28;2646;-64
2023/02/22 08:36:52;;;;;;;;;;;;;;;20.27;54.93;101215.88;5073434;28;2865;-64
2023/02/22 08:39:18;;;;;;;;;;;;;;;20.26;54.74;101217.28;5072070;28;2803;-63
2023/02/22 08:41:45;;;;;;;;;;;;;;;20.28;54.89;101214.50;5072701;28;2822;-64
2023/02/22 08:44:11;;;;;;;;;;;;;;;20.29;54.72;101216.00;5076392;28;2486;-63
2023/02/22 08:46:38;;;;;;;;;;;;;;;20.28;54.74;101212.38;5073895;28;2451;-63
2023/02/22 08:49:06;;;;;;;;;;;;;;;20.29;54.70;101205.25;5075626;28;2740;-63
2023/02/22 08:51:35;;;;;;;;;;;;;;;20.30;54.93;101208.88;5068808;28;2845;-63
2023/02/22 08:54:02;;;;;;;;;;;;;;;20.30;54.64;101206.00;5078291;28;2937;-63
2023/02/22 08:56:29;;;;;;;;;;;;;;;20.30;54.87;101211.75;5075534;28;2530;-63
2023/02/22 08:58:56;;;;;;;;;;;;;;;20.30;54.67;101212.50;5074943;28;2734;-64
2023/02/22 09:01:23;;;;;;;;;;;;;;;20.38;54.59;101208.53;5076529;28;3234;-63
2023/02/22 09:03:58;;;;;;;;;;;;;;;20.38;54.59;101211.41;5103028;27;2809;-64
2023/02/22 09:06:24;;;;;;;;;;;;;;;20.38;54.45;101209.28;5074546;28;2119;-63
2023/02/22 09:08:51;;;;;;;;;;;;;;;20.36;54.50;101197.66;5078535;28;2415;-63
2023/02/22 09:11:17;;;;;;;;;;;;;;;20.37;54.36;101210.66;5077885;28;2821;-63
2023/02/22 09:13:44;;;;;;;;;;;;;;;20.36;54.58;101203.41;5078256;28;2568;-63
2023/02/22 09:16:10;;;;;;;;;;;;;;;20.29;54.59;101196.63;5073292;28;2376;-63
2023/02/22 09:18:36;;;;;;;;;;;;;;;20.34;54.30;101203.34;5078939;28;2694;-63
2023/02/22 09:21:10;;;;;;;;;;;;;;;20.38;54.33;101203.53;5083306;28;1573;-63
2023/02/22 09:23:36;;;;;;;;;;;;;;;20.39;54.42;101196.41;5079141;28;2245;-64
2023/02/22 09:26:03;;;;;;;;;;;;;;;20.39;54.28;101190.66;5084347;28;1622;-63
2023/02/22 09:28:29;;;;;;;;;;;;;;;20.41;54.29;101192.88;5069865;28;2700;-64
2023/02/22 09:30:55;;;;;;;;;;;;;;;20.42;54.32;101194.38;5063903;28;1696;-63
2023/02/22 09:33:22;;;;;;;;;;;;;;;20.43;54.27;101195.84;5070821;28;2809;-63
2023/02/22 09:35:49;;;;;;;;;;;;;;;20.42;54.25;101197.97;5071520;28;1731;-63
2023/02/22 09:38:16;;;;;;;;;;;;;;;20.42;54.13;101200.88;5065235;28;2853;-63
2023/02/22 09:40:44;;;;;;;;;;;;;;;20.41;54.31;101192.88;5065956;28;2837;-63
2023/02/22 09:43:17;;;;;;;;;;;;;;;20.42;54.36;101194.38;5068470;28;1588;-63
2023/02/22 09:46:01;;;;;;;;;;;;;;;20.40;54.30;101197.13;5074647;28;2355;-63
2023/02/22 09:48:30;;;;;;;;;;;;;;;20.40;54.19;101189.25;5105666;27;2129;-63
2023/02/22 09:50:57;;;;;;;;;;;;;;;20.39;54.37;101189.91;5072166;28;2557;-63
2023/02/22 09:53:30;;;;;;;;;;;;;;;20.40;54.43;101191.38;5106699;27;1876;-63
2023/02/22 09:55:58;;;;;;;;;;;;;;;20.41;54.06;101193.63;5067809;28;2620;-64
2023/02/22 09:58:33;;;;;;;;;;;;;;;20.41;54.17;101182.13;5102070;27;1731;-63
2023/02/22 10:01:17;;;;;;;;;;;;;;;20.41;54.31;101187.88;5067614;28;2841;-64
2023/02/22 10:03:48;;;;;;;;;;;;;;;20.42;54.20;101177.09;5065629;28;2585;-64
2023/02/22 10:06:15;;;;;;;;;;;;;;;20.43;54.17;101179.34;5064803;28;2832;-64
2023/02/22 10:08:43;;;;;;;;;;;;;;;20.45;54.01;101176.56;5067269;28;1973;-64
2023/02/22 10:11:14;;;;;;;;;;;;;;;20.45;54.10;101178.69;5065785;28;2900;-64
2023/02/22 10:13:49;;;;;;;;;;;;;;;20.46;53.99;101177.31;5065355;28;1708;-64
2023/02/22 10:16:19;;;;;;;;;;;;;;;20.45;53.97;101176.56;5060851;28;2818;-65
2023/02/22 10:19:07;;;;;;;;;;;;;;;20.45;54.01;101172.94;5096393;28;1775;-64
2023/02/22 10:21:46;;;;;;;;;;;;;;;20.43;54.03;101173.59;5065756;28;2715;-63
2023/02/22 10:24:23;;;;;;;;;;;;;;;20.45;54.10;101172.94;5097505;27;1674;-62
2023/02/22 10:26:50;;;;;;;;;;;;;;;20.44;54.05;101175.06;5066333;28;2771;-63
2023/02/22 10:29:18;;;;;;;;;;;;;;;20.43;53.99;101172.84;5091790;28;2923;-64
2023/02/22 10:31:45;;;;;;;;;;;;;;;20.37;54.24;101173.28;5096285;28;2844;-64
2023/02/22 10:34:12;;;;;;;;;;;;;;;20.36;54.16;101165.28;5097050;28;2179;-64
2023/02/22 10:36:39;;;;;;;;;;;;;;;20.36;54.31;101162.41;5065265;28;2411;-64
2023/02/22 10:39:13;;;;;;;;;;;;;;;20.36;54.26;101168.16;5094898;28;1805;-65
2023/02/22 10:41:42;;;;;;;;;;;;;;;20.43;54.06;101173.59;5061921;28;2830;-64
2023/02/22 10:44:08;;;;;;;;;;;;;;;20.45;53.89;101158.56;5097272;28;3278;-63
2023/02/22 10:46:36;;;;;;;;;;;;;;;20.47;53.86;101162.28;5092940;28;2925;-63
2023/02/22 10:49:03;;;;;;;;;;;;;;;20.47;53.91;101162.28;5094740;28;2985;-64
2023/02/22 10:51:30;;;;;;;;;;;;;;;20.47;54.12;101159.41;5095360;28;2875;-64
2023/02/22 10:54:11;;;;;;;;;;;;;;;20.48;53.83;101160.91;5062797;28;2774;-64
2023/02/22 10:56:47;;;;;;;;;;;;;;;20.43;53.86;101156.34;5063727;28;1850;-65
2023/02/22 10:59:25;;;;;;;;;;;;;;;20.45;53.89;101150.66;5060168;28;2807;-64
2023/02/22 11:01:52;;;;;;;;;;;;;;;20.42;53.99;101151.97;5061816;28;2833;-65
2023/02/22 11:04:20;;;;;;;;;;;;;;;20.41;54.07;101158.34;5060949;28;2573;-64
2023/02/22 11:06:47;;;;;;;;;;;;;;;20.39;54.06;101159.00;5096836;28;1714;-64
2023/02/22 11:09:16;;;;;;;;;;;;;;;20.38;54.21;101154.63;5092164;28;2501;-63
2023/02/22 11:11:44;;;;;;;;;;;;;;;20.37;53.94;101153.16;5059366;28;2731;-63
2023/02/22 11:14:12;;;;;;;;;;;;;;;20.38;54.19;101154.63;5058748;28;2818;-65
2023/02/22 11:16:40;;;;;;;;;;;;;;;20.38;54.26;101154.63;5086669;28;2851;-64
2023/02/22 11:19:10;;;;;;;;;;;;;;;20.36;54.04;101153.78;5093071;28;2900;-65
2023/02/22 11:21:39;;;;;;;;;;;;;;;20.37;54.13;101147.41;5091704;28;1711;-64
2023/02/22 11:24:09;;;;;;;;;;;;;;;20.36;54.19;101145.16;5094778;28;1878;-64
2023/02/22 11:26:47;;;;;;;;;;;;;;;20.35;54.09;101138.66;5072684;28;2885;-64
2023/02/22 11:29:20;;;;;;;;;;;;;;;20.35;54.07;101143.69;5107241;27;2803;-64
2023/02/22 11:31:48;;;;;;;;;;;;;;;20.34;54.12;101134.31;5080400;28;2915;-62
2023/02/22 11:34:43;;;;;;;;;;;;;;;20.34;54.10;101136.41;5076460;28;2885;-62
2023/02/22 11:37:28;;;;;;;;;;;;;;;20.32;54.05;101133.44;5069467;28;1931;-63
2023/02/22 11:40:05;;;;;;;;;;;;;;;20.32;54.15;101139.97;5076801;28;2895;-65
2023/02/22 11:42:31;;;;;;;;;;;;;;;20.31;54.05;101132.69;5082762;28;1703;-63
2023/02/22 11:45:26;;;;;;;;;;;;;;;20.30;54.02;101129.09;5077276;28;2821;-64
2023/02/22 11:47:55;;;;;;;;;;;;;;;20.31;54.15;101124.06;5077669;28;3174;-64
2023/02/22 11:50:29;;;;;;;;;;;;;;;20.32;54.06;101119.81;5069101;28;1855;-65
2023/02/22 11:53:16;;;;;;;;;;;;;;;20.30;54.05;101117.56;5103299;27;2835;-64
2023/02/22 11:55:49;;;;;;;;;;;;;;;20.30;54.03;101119.72;5070725;28;2897;-64
2023/02/22 11:58:23;;;;;;;;;;;;;;;20.29;54.03;101112.47;5076320;28;2773;-63
2023/02/22 12:00:56;;;;;;;;;;;;;;;20.29;54.11;101107.47;5110595;27;2834;-64
2023/02/22 12:03:50;;;;;;;;;;;;;;;20.27;54.04;101109.47;5111282;27;1620;-65
2023/02/22 12:06:31;;;;;;;;;;;;;;;20.24;53.16;101110.78;5070024;28;2925;-64
2023/02/22 12:09:00;;;;;;;;;;;;;;;20.24;53.03;101102.16;5080981;28;1909;-64
2023/02/22 12:11:35;;;;;;;;;;;;;;;20.23;53.05;101097.78;5080731;28;1638;-64
2023/02/22 12:14:06;;;;;;;;;;;;;;;20.22;52.16;101096.28;5074476;28;1735;-64
2023/02/22 12:16:38;;;;;;;;;;;;;;;20.20;52.04;101099.81;5103033;27;1690;-64
2023/02/22 12:19:26;;;;;;;;;;;;;;;20.20;52.04;101094.06;5105163;27;2720;-64
2023/02/22 12:21:53;;;;;;;;;;;;;;;20.19;51.87;101091.84;5074367;28;1617;-64
2023/02/22 12:24:21;;;;;;;;;;;;;;;20.06;51.44;101091.19;5068251;28;1672;-63
2023/02/22 12:27:00;;;;;;;;;;;;;;;20.04;48.25;101088.25;5070362;28;1849;-64
2023/02/22 12:29:31;;;;;;;;;;;;;;;20.05;47.56;101089.72;5103559;27;2417;-65
2023/02/22 12:32:03;;;;;;;;;;;;;;;19.99;46.22;101092.28;5103227;27;2786;-64
2023/02/22 12:34:37;;;;;;;;;;;;;;;19.99;45.95;101091.53;5103090;27;1608;-65
2023/02/22 12:37:15;;;;;;;;;;;;;;;19.96;45.35;101087.81;5100950;27;1766;-63
2023/02/22 12:39:45;;;;;;;;;;;;;;;19.93;44.68;101089.09;5070948;28;1719;-63
2023/02/22 12:42:20;;;;;;;;;;;;;;;19.91;45.90;101088.25;5066428;28;2988;-64
2023/02/22 12:44:49;;;;;;;;;;;;;;;20.04;44.62;101099.75;5096518;27;3045;-60
2023/02/22 12:47:17;;;;;;;;;;;;;;;19.12;44.68;101097.69;5104748;27;2383;-61
2023/02/22 12:49:48;;;;;;;;;;;;;;;18.73;44.48;101092.63;5105422;27;2727;-61
2023/02/22 12:52:33;;;;;;;;;;;;;;;18.81;44.78;101104.59;5073870;28;2119;-60
2023/02/22 12:55:00;;;;;;;;;;;;;;;18.44;44.26;101101.75;5070341;28;2850;-63
2023/02/22 12:57:34;;;;;;;;;;;;;;;18.76;44.18;101102.09;5091129;27;2890;-70